Time;durP1;ratioP1;P1;durP2;ratioP2;P2;SDS_P1;SDS_P2;PMS_P1;PMS_P2;Temp;Humidity;BMP_temperature;BMP_pressure;BME280_temperature;BME280_humidity;BME280_pressure;Samples;Min_cycle;Max_cycle;Signal;HPM_P1;HPM_P2
2023/08/15 00:02:21;;;;;;;6.55;5.85;;;;;;;25.35;100.00;100753.09;5070805;28;20111;-73
2023/08/15 00:04:47;;;;;;;7.03;5.93;;;;;;;25.59;100.00;100771.25;5070740;28;20048;-71
2023/08/15 00:07:12;;;;;;;6.57;5.93;;;;;;;25.17;100.00;100705.03;5070366;28;20029;-71
2023/08/15 00:09:38;;;;;;;6.60;5.93;;;;;;;25.55;100.00;100768.03;5070862;28;20016;-72
2023/08/15 00:12:03;;;;;;;7.05;6.35;;;;;;;25.70;100.00;100794.69;5070728;28;20514;-73
2023/08/15 00:14:29;;;;;;;9.70;5.60;;;;;;;25.26;100.00;100713.91;5070430;28;20098;-73
2023/08/15 00:16:54;;;;;;;6.68;5.72;;;;;;;25.58;100.00;100770.41;5070923;28;20029;-72
2023/08/15 00:19:19;;;;;;;6.80;5.75;;;;;;;25.60;100.00;100765.91;5071152;28;20513;-76
2023/08/15 00:21:45;;;;;;;7.75;5.88;;;;;;;25.37;100.00;100678.28;5070593;28;20044;-73
2023/08/15 00:24:10;;;;;;;6.15;5.55;;;;;;;25.63;100.00;100716.16;5052629;28;20371;-73
2023/08/15 00:26:36;;;;;;;5.55;5.05;;;;;;;25.72;100.00;100735.47;5070592;28;20593;-74
2023/08/15 00:29:01;;;;;;;6.45;5.22;;;;;;;25.22;100.00;100710.69;5071155;28;20024;-74
2023/08/15 00:31:27;;;;;;;7.82;5.57;;;;;;;25.30;100.00;100754.38;5071263;28;20032;-74
2023/08/15 00:33:52;;;;;;;6.75;5.57;;;;;;;25.06;100.00;100730.22;5073766;28;20493;-74
2023/08/15 00:36:18;;;;;;;8.00;5.78;;;;;;;25.13;100.00;100739.22;5074554;28;20028;-73
2023/08/15 00:38:43;;;;;;;7.05;5.30;;;;;;;24.96;100.00;100752.69;5074590;28;20037;-74
2023/08/15 00:41:09;;;;;;;7.13;5.65;;;;;;;24.92;100.00;100729.47;5074760;28;20032;-74
2023/08/15 00:43:35;;;;;;;7.63;5.70;;;;;;;24.69;100.00;100750.31;5074962;28;20119;-74
2023/08/15 00:46:03;;;;;;;7.97;5.88;;;;;;;24.64;100.00;100722.03;5057034;28;20403;-74
2023/08/15 00:48:30;;;;;;;7.45;5.20;;;;;;;24.38;100.00;100722.31;5074800;28;20400;-74
2023/08/15 00:50:57;;;;;;;7.45;5.80;;;;;;;24.19;100.00;100668.22;5074769;28;20029;-74
2023/08/15 00:53:22;;;;;;;8.23;6.15;;;;;;;24.56;100.00;100729.59;5074879;28;20071;-74
2023/08/15 00:55:50;;;;;;;8.32;6.00;;;;;;;24.08;100.00;100700.22;5074227;28;20068;-73
2023/08/15 00:58:16;;;;;;;8.13;5.95;;;;;;;24.54;100.00;100748.88;5056916;28;20473;-74
2023/08/15 01:00:42;;;;;;;10.00;5.90;;;;;;;23.90;100.00;100674.69;5074554;28;20032;-74
2023/08/15 01:03:09;;;;;;;6.30;5.70;;;;;;;24.05;100.00;100710.00;5074252;28;20146;-73
2023/08/15 01:05:35;;;;;;;8.15;6.05;;;;;;;24.39;100.00;100722.22;5074273;28;20052;-74
2023/08/15 01:08:00;;;;;;;8.15;6.00;;;;;;;24.53;100.00;100747.19;5074382;28;20067;-73
2023/08/15 01:10:26;;;;;;;7.32;6.05;;;;;;;24.23;100.00;100677.47;5056379;28;20111;-72
2023/08/15 01:13:20;;;;;;;7.43;5.72;;;;;;;24.04;100.00;100615.63;5074057;28;20029;-73
2023/08/15 01:15:51;;;;;;;6.78;5.50;;;;;;;24.52;100.00;100720.34;5074422;28;20028;-75
2023/08/15 01:18:37;;;;;;;7.15;5.40;;;;;;;24.64;100.00;100703.84;5074146;28;20395;-74
2023/08/15 01:21:04;;;;;;;9.65;5.40;;;;;;;24.11;100.00;100669.75;5074161;28;20037;-73
2023/08/15 01:23:46;;;;;;;7.68;5.80;;;;;;;24.47;100.00;100708.63;5073869;28;20028;-73
2023/08/15 01:26:11;;;;;;;8.10;5.35;;;;;;;24.33;100.00;100659.41;5056014;28;20024;-74
2023/08/15 01:28:38;;;;;;;6.88;5.43;;;;;;;24.76;100.00;100720.34;5073993;28;20055;-74
2023/08/15 01:31:12;;;;;;;6.13;5.30;;;;;;;24.81;100.00;100723.44;5074044;28;20033;-74
2023/08/15 01:33:45;;;;;;;8.02;5.65;;;;;;;24.79;100.00;100720.94;5073817;28;20196;-73
2023/08/15 01:36:25;;;;;;;7.55;5.60;;;;;;;24.54;100.00;100661.25;5073882;28;20031;-73
2023/08/15 01:38:56;;;;;;;6.18;5.30;;;;;;;24.66;100.00;100675.94;5073754;28;20555;-74
2023/08/15 01:41:25;;;;;;;6.80;5.55;;;;;;;24.53;100.00;100672.59;5073354;28;20029;-74
2023/08/15 01:43:51;;;;;;;6.70;5.20;;;;;;;24.94;100.00;100727.59;5073570;28;20895;-74
2023/08/15 01:46:17;;;;;;;7.18;5.38;;;;;;;25.00;100.00;100743.72;5073796;28;20102;-74
2023/08/15 01:48:43;;;;;;;9.18;5.72;;;;;;;24.93;100.00;100759.78;5073770;28;20025;-74
2023/08/15 01:51:09;;;;;;;6.78;5.68;;;;;;;24.47;100.00;100771.03;5073702;28;20032;-74
2023/08/15 01:53:36;;;;;;;8.90;5.57;;;;;;;24.42;100.00;100718.56;5072759;28;20040;-74
2023/08/15 01:56:02;;;;;;;10.13;5.70;;;;;;;24.19;100.00;100651.81;5073232;28;20032;-74
2023/08/15 01:58:28;;;;;;;7.70;5.90;;;;;;;24.41;100.00;100741.13;5073227;28;20052;-74
2023/08/15 02:00:53;;;;;;;9.55;6.28;;;;;;;23.89;100.00;100692.03;5073082;28;20040;-73
2023/08/15 02:03:18;;;;;;;6.10;5.55;;;;;;;23.93;100.00;100632.88;5055419;28;20055;-75
2023/08/15 02:05:44;;;;;;;7.93;5.78;;;;;;;24.06;100.00;100686.50;5073307;28;20043;-74
2023/08/15 02:08:09;;;;;;;7.18;5.70;;;;;;;24.34;100.00;100655.88;5073127;28;20491;-74
2023/08/15 02:10:35;;;;;;;8.15;5.70;;;;;;;24.45;100.00;100698.34;5072981;28;20028;-75
2023/08/15 02:13:00;;;;;;;7.93;5.07;;;;;;;24.05;100.00;100726.41;5055552;28;20028;-74
2023/08/15 02:15:25;;;;;;;6.90;5.93;;;;;;;24.26;100.00;100737.06;5055438;28;20067;-73
2023/08/15 02:17:51;;;;;;;6.18;5.47;;;;;;;24.33;100.00;100740.84;5072906;28;20032;-74
2023/08/15 02:20:16;;;;;;;7.15;5.70;;;;;;;24.08;100.00;100674.22;5072072;28;20032;-74
2023/08/15 02:22:42;;;;;;;7.32;5.70;;;;;;;23.75;100.00;100692.19;5072768;28;20095;-74
2023/08/15 02:25:08;;;;;;;7.10;5.70;;;;;;;23.65;100.00;100654.00;5058834;28;20074;-74
2023/08/15 02:27:33;;;;;;;6.78;5.63;;;;;;;23.82;100.00;100693.44;5078149;28;20032;-74
2023/08/15 02:29:58;;;;;;;6.68;5.50;;;;;;;24.19;100.00;100740.19;5072878;28;20526;-74
2023/08/15 02:32:24;;;;;;;5.75;5.22;;;;;;;24.28;100.00;100718.72;5072834;28;20032;-75
2023/08/15 02:34:50;;;;;;;6.05;5.15;;;;;;;24.49;100.00;100748.34;5072970;28;20525;-75
2023/08/15 02:37:16;;;;;;;7.22;5.53;;;;;;;24.01;100.00;100670.38;5072890;28;20407;-73
2023/08/15 02:39:41;;;;;;;7.38;5.50;;;;;;;24.24;100.00;100694.75;5054731;28;20048;-75
2023/08/15 02:42:07;;;;;;;6.95;5.43;;;;;;;24.23;100.00;100680.06;5072569;28;20021;-75
2023/08/15 02:44:33;;;;;;;7.45;5.07;;;;;;;24.35;100.00;100668.78;5072895;28;20070;-75
2023/08/15 02:46:58;;;;;;;8.18;5.28;;;;;;;24.13;100.00;100634.09;5072652;28;20066;-74
2023/08/15 02:49:24;;;;;;;8.25;5.55;;;;;;;24.45;100.00;100645.50;5072860;28;20055;-75
2023/08/15 02:51:49;;;;;;;10.63;5.57;;;;;;;24.60;100.00;100717.22;5072623;28;20512;-75
2023/08/15 02:54:14;;;;;;;5.97;5.38;;;;;;;;;;5072691;28;20451;-75
2023/08/15 02:56:40;;;;;;;6.45;5.53;;;;;;;24.23;100.00;100635.03;5071816;28;20108;-74
2023/08/15 02:59:05;;;;;;;6.15;5.28;;;;;;;24.62;100.00;100702.31;5072457;28;20024;-74
2023/08/15 03:01:32;;;;;;;7.60;5.55;;;;;;;24.45;100.00;100708.75;5072172;28;20032;-74
2023/08/15 03:03:58;;;;;;;7.78;5.72;;;;;;;23.90;100.00;100653.91;5072139;28;20048;-74
2023/08/15 03:06:23;;;;;;;11.07;6.05;;;;;;;23.89;100.00;100642.69;5071846;28;20033;-74
2023/08/15 03:08:49;;;;;;;8.10;6.05;;;;;;;24.18;100.00;100699.53;5072357;28;20028;-73
2023/08/15 03:11:14;;;;;;;7.63;6.20;;;;;;;23.77;100.00;100677.31;5054406;28;20074;-73
2023/08/15 03:13:40;;;;;;;10.75;6.20;;;;;;;24.28;100.00;100732.56;5071507;28;20028;-74
2023/08/15 03:16:05;;;;;;;7.70;5.60;;;;;;;24.13;100.00;100688.66;5071212;28;20032;-73
2023/08/15 03:18:31;;;;;;;8.00;6.03;;;;;;;23.89;100.00;100662.63;5071429;28;20028;-73
2023/08/15 03:21:01;;;;;;;9.23;6.03;;;;;;;24.07;100.00;100693.34;5071322;28;20032;-73
2023/08/15 03:23:26;;;;;;;6.85;5.82;;;;;;;24.00;100.00;100709.47;5071081;28;20028;-73
2023/08/15 03:25:59;;;;;;;7.03;5.80;;;;;;;24.07;100.00;100757.47;5071381;28;20040;-73
2023/08/15 03:28:25;;;;;;;7.60;5.85;;;;;;;23.76;100.00;100646.28;5071553;28;20028;-74
2023/08/15 03:30:51;;;;;;;7.57;6.20;;;;;;;24.22;100.00;100758.16;5071464;28;20028;-73
2023/08/15 03:33:17;;;;;;;9.38;6.03;;;;;;;23.76;100.00;100706.84;5071030;28;20388;-73
2023/08/15 03:35:46;;;;;;;10.23;6.68;;;;;;;24.23;100.00;100771.06;5068530;28;20493;-73
2023/08/15 03:38:16;;;;;;;8.70;6.50;;;;;;;23.95;100.00;100709.78;5031645;28;20030;-74
2023/08/15 03:40:46;;;;;;;8.32;6.03;;;;;;;23.87;100.00;100732.88;5031704;28;20033;-74
2023/08/15 03:43:12;;;;;;;7.05;6.00;;;;;;;23.85;100.00;100729.56;5031567;28;20507;-72
2023/08/15 03:45:38;;;;;;;9.10;6.50;;;;;;;23.94;100.00;100769.66;5031522;28;20033;-73
2023/08/15 03:48:05;;;;;;;9.18;6.20;;;;;;;23.89;100.00;100740.56;5039881;28;20029;-73
2023/08/15 03:50:34;;;;;;;7.70;5.93;;;;;;;24.24;100.00;100753.69;5050710;28;20032;-74
2023/08/15 03:53:00;;;;;;;8.48;6.28;;;;;;;24.16;100.00;100728.25;5051707;28;20492;-75
2023/08/15 03:55:27;;;;;;;7.65;6.28;;;;;;;23.91;100.00;100708.34;5040076;28;20041;-75
2023/08/15 03:57:52;;;;;;;7.72;6.10;;;;;;;24.45;100.00;100734.75;5013494;28;20076;-75
2023/08/15 04:00:20;;;;;;;8.27;6.35;;;;;;;24.31;100.00;100736.69;5031441;28;20124;-75
2023/08/15 04:02:46;;;;;;;7.20;6.50;;;;;;;23.92;100.00;100668.44;5031786;28;20041;-73
2023/08/15 04:05:12;;;;;;;9.98;6.32;;;;;;;24.55;100.00;100729.69;5048724;28;20400;-74
2023/08/15 04:07:39;;;;;;;8.25;6.22;;;;;;;24.58;100.00;100732.09;5050451;28;20747;-72
2023/08/15 04:10:05;;;;;;;10.40;6.82;;;;;;;24.58;100.00;100730.31;5050922;28;20075;-74
2023/08/15 04:12:30;;;;;;;9.82;6.68;;;;;;;24.28;100.00;100654.56;5050903;28;20476;-74
2023/08/15 04:14:56;;;;;;;7.15;6.20;;;;;;;24.12;100.00;100672.22;5033589;28;20488;-75
2023/08/15 04:17:21;;;;;;;9.27;6.57;;;;;;;24.54;100.00;100728.06;5050976;28;20212;-75
2023/08/15 04:19:47;;;;;;;9.27;6.97;;;;;;;24.28;100.00;100672.78;5033653;28;20029;-75
2023/08/15 04:22:12;;;;;;;9.05;7.03;;;;;;;24.59;100.00;100731.13;5052045;28;20483;-76
2023/08/15 04:24:38;;;;;;;8.32;6.63;;;;;;;24.51;100.00;100723.06;5050996;28;20040;-74
2023/08/15 04:27:06;;;;;;;10.40;6.95;;;;;;;24.39;100.00;100669.38;5051149;28;20025;-76
2023/08/15 04:29:32;;;;;;;9.48;7.10;;;;;;;24.05;100.00;100632.03;5033057;28;20079;-73
2023/08/15 04:31:57;;;;;;;8.32;7.10;;;;;;;24.86;100.00;100711.72;5050570;28;20491;-75
2023/08/15 04:34:23;;;;;;;8.80;7.15;;;;;;;24.77;100.00;100683.81;5050806;28;20086;-73
2023/08/15 04:36:49;;;;;;;9.52;6.70;;;;;;;24.62;100.00;100666.72;5064890;28;20071;-74
2023/08/15 04:39:15;;;;;;;7.70;6.90;;;;;;;24.92;100.00;100726.03;5059520;28;20033;-76
2023/08/15 04:41:41;;;;;;;9.93;7.63;;;;;;;25.28;100.00;100710.22;5070146;28;20396;-76
2023/08/15 04:44:07;;;;;;;9.32;7.40;;;;;;;25.05;100.00;100708.56;5053274;28;20027;-74
2023/08/15 04:46:33;;;;;;;9.13;7.20;;;;;;;25.19;100.00;100715.31;5071074;28;20025;-74
2023/08/15 04:48:58;;;;;;;9.82;7.60;;;;;;;25.13;100.00;100687.16;5069673;28;20040;-72
2023/08/15 04:51:24;;;;;;;9.48;7.38;;;;;;;25.30;100.00;100656.25;5069479;28;20055;-74
2023/08/15 04:53:49;;;;;;;10.25;7.40;;;;;;;25.39;100.00;100710.25;5070887;28;20032;-73
2023/08/15 04:56:15;;;;;;;9.60;7.78;;;;;;;25.24;100.00;100643.72;5051268;28;20024;-73
2023/08/15 04:58:40;;;;;;;9.63;7.55;;;;;;;25.74;100.00;100692.69;5070805;28;20028;-72
2023/08/15 05:01:06;;;;;;;10.45;7.38;;;;;;;25.81;100.00;100698.22;5070593;28;20039;-74
2023/08/15 05:03:31;;;;;;;10.68;8.10;;;;;;;25.89;100.00;100687.22;5070172;28;20478;-72
2023/08/15 05:05:57;;;;;;;8.77;7.78;;;;;;;25.58;100.00;100619.31;5070385;28;20032;-75
2023/08/15 05:08:22;;;;;;;10.35;7.38;;;;;;;26.01;100.00;100674.00;5069971;28;20032;-73
2023/08/15 05:10:49;;;;;;;12.38;7.32;;;;;;;26.17;100.00;100655.38;5069801;28;20052;-74
2023/08/15 05:13:15;;;;;;;8.27;6.80;;;;;;;26.19;100.00;100604.75;5051711;28;20024;-74
2023/08/15 05:15:41;;;;;;;8.48;7.00;;;;;;;26.56;100.00;100586.88;5070393;28;20028;-74
2023/08/15 05:18:06;;;;;;;9.02;6.70;;;;;;;26.08;100.00;100555.28;5069599;28;20116;-75
2023/08/15 05:20:33;;;;;;;9.82;6.45;;;;;;;26.74;100.00;100641.94;5074127;28;20120;-74
2023/08/15 05:22:59;;;;;;;9.63;7.25;;;;;;;26.87;100.00;100585.94;5074477;28;20124;-75
2023/08/15 05:25:24;;;;;;;9.43;6.78;;;;;;;26.93;100.00;100603.69;5074257;28;20070;-75
2023/08/15 05:27:50;;;;;;;8.32;6.60;;;;;;;26.98;100.00;100624.97;5074324;28;20025;-76
2023/08/15 05:30:16;;;;;;;8.48;6.57;;;;;;;26.87;100.00;100580.72;5073773;28;20491;-75
2023/08/15 05:32:41;;;;;;;11.43;6.40;;;;;;;27.14;100.00;100633.16;5056187;28;20044;-75
2023/08/15 05:35:07;;;;;;;9.27;6.53;;;;;;;26.99;100.00;100584.88;5073829;28;20546;-74
2023/08/15 05:37:32;;;;;;;8.32;6.93;;;;;;;27.54;100.00;100622.69;5073360;28;20074;-74
2023/08/15 05:39:58;;;;;;;10.05;6.80;;;;;;;27.57;100.00;100578.03;5055866;28;20483;-74
2023/08/15 05:42:23;;;;;;;7.93;6.93;;;;;;;27.52;100.00;100589.81;5073517;28;20029;-75
2023/08/15 05:44:49;;;;;;;9.25;6.72;;;;;;;27.60;100.00;100576.91;5055927;28;20113;-75
2023/08/15 05:47:14;;;;;;;8.13;7.00;;;;;;;27.76;100.00;100564.09;5073556;28;20029;-73
2023/08/15 05:49:43;;;;;;;8.82;6.88;;;;;;;27.87;100.00;100543.88;5073844;28;20029;-75
2023/08/15 05:52:08;;;;;;;8.00;6.45;;;;;;;28.38;100.00;100598.50;5073933;28;20029;-73
2023/08/15 05:54:34;;;;;;;10.95;6.22;;;;;;;28.58;100.00;100586.22;5055455;28;20158;-73
2023/08/15 05:56:59;;;;;;;7.72;6.43;;;;;;;28.70;100.00;100590.28;5073501;28;20028;-73
2023/08/15 05:59:24;;;;;;;9.75;6.72;;;;;;;29.06;100.00;100589.41;5055162;28;20039;-72
2023/08/15 06:01:50;;;;;;;9.75;6.80;;;;;;;29.15;100.00;100558.94;5072198;28;20544;-72
2023/08/15 06:04:15;;;;;;;8.15;5.90;;;;;;;29.08;100.00;100592.72;5054855;28;20056;-71
2023/08/15 06:06:41;;;;;;;8.82;6.95;;;;;;;29.31;100.00;100594.03;5072831;28;20032;-73
2023/08/15 06:09:06;;;;;;;9.77;5.82;;;;;;;28.79;100.00;100560.63;5073087;28;20082;-73
2023/08/15 06:11:32;;;;;;;8.75;5.97;;;;;;;29.20;100.00;100552.28;5072968;28;20025;-73
2023/08/15 06:13:57;;;;;;;6.88;6.00;;;;;;;29.47;100.00;100582.88;5072509;28;20117;-73
2023/08/15 06:16:23;;;;;;;11.50;6.22;;;;;;;29.58;100.00;100578.22;5072786;28;20130;-73
2023/08/15 06:18:48;;;;;;;8.93;6.10;;;;;;;29.78;100.00;100565.81;5072704;28;20024;-73
2023/08/15 06:21:14;;;;;;;12.73;6.72;;;;;;;29.54;100.00;100594.41;5072970;28;20020;-73
2023/08/15 06:23:39;;;;;;;9.38;6.10;;;;;;;29.85;100.00;100574.75;5072927;28;20024;-74
2023/08/15 06:26:05;;;;;;;7.40;6.32;;;;;;;29.75;100.00;100524.16;5073037;28;20525;-73
2023/08/15 06:28:30;;;;;;;11.35;6.43;;;;;;;29.01;100.00;100557.63;5072616;28;20043;-73
2023/08/15 06:30:55;;;;;;;7.47;5.97;;;;;;;29.75;100.00;100587.09;5053629;28;20078;-73
2023/08/15 06:33:21;;;;;;;11.10;6.10;;;;;;;29.62;100.00;100590.06;5072006;28;20031;-73
2023/08/15 06:35:46;;;;;;;7.57;6.18;;;;;;;29.54;100.00;100536.72;5072745;28;20414;-73
2023/08/15 06:38:12;;;;;;;6.95;5.93;;;;;;;30.40;100.00;100568.28;5072477;28;20426;-73
2023/08/15 06:40:39;;;;;;;7.40;6.00;;;;;;;30.24;100.00;100580.44;5072489;28;20127;-73
2023/08/15 06:43:05;;;;;;;9.95;6.13;;;;;;;29.79;100.00;100536.00;5072408;28;20461;-75
2023/08/15 06:45:30;;;;;;;8.07;5.82;;;;;;;30.05;100.00;100581.44;5072037;28;20036;-72
2023/08/15 06:47:56;;;;;;;9.82;5.80;;;;;;;29.31;100.00;100546.00;5053786;28;20054;-74
2023/08/15 06:50:22;;;;;;;10.35;6.43;;;;;;;29.57;100.00;100594.13;5054644;28;20028;-77
2023/08/15 06:52:48;;;;;;;7.10;5.60;;;;;;;29.02;100.00;100499.81;5072862;28;20044;-73
2023/08/15 06:55:13;;;;;;;8.82;5.65;;;;;;;29.51;100.00;100585.06;5072122;28;20029;-73
2023/08/15 06:57:39;;;;;;;9.95;5.90;;;;;;;29.41;100.00;100600.03;5071419;28;20127;-73
2023/08/15 07:00:11;;;;;;;9.32;6.07;;;;;;;29.36;100.00;100614.53;5071154;28;20032;-73
2023/08/15 07:02:37;;;;;;;7.78;5.88;;;;;;;29.67;100.00;100600.13;5053981;28;20071;-72
2023/08/15 07:05:04;;;;;;;10.07;5.55;;;;;;;29.28;100.00;100590.88;5071634;28;20511;-74
2023/08/15 07:07:29;;;;;;;10.05;6.30;;;;;;;29.54;100.00;100602.25;5071905;28;20039;-73
2023/08/15 07:09:56;;;;;;;6.60;5.95;;;;;;;29.47;100.00;100548.78;5070429;28;20025;-73
2023/08/15 07:12:21;;;;;;;10.57;5.55;;;;;;;29.65;100.00;100609.94;5071708;28;20032;-73
2023/08/15 07:14:47;;;;;;;7.35;5.40;;;;;;;29.81;100.00;100616.16;5071471;28;20030;-73
2023/08/15 07:17:12;;;;;;;7.82;5.80;;;;;;;29.73;100.00;100616.09;5071352;28;20415;-72
2023/08/15 07:19:38;;;;;;;10.57;5.75;;;;;;;29.34;100.00;100619.91;5071642;28;20032;-75
2023/08/15 07:22:04;;;;;;;8.98;5.50;;;;;;;29.28;100.00;100572.53;5071259;28;20111;-74
2023/08/15 07:24:29;;;;;;;10.77;5.30;;;;;;;29.68;100.00;100544.88;5071780;28;20086;-73
2023/08/15 07:26:54;;;;;;;11.13;5.55;;;;;;;29.95;100.00;100601.69;5053456;28;20093;-73
2023/08/15 07:29:20;;;;;;;9.55;6.13;;;;;;;29.75;100.00;100558.25;5071159;28;20055;-74
2023/08/15 07:31:45;;;;;;;7.30;5.90;;;;;;;30.57;100.00;100584.91;5071376;28;20028;-74
2023/08/15 07:34:11;;;;;;;10.02;5.75;;;;;;;29.82;100.00;100612.56;5071674;28;20024;-74
2023/08/15 07:36:36;;;;;;;7.60;5.75;;;;;;;29.50;100.00;100608.78;5071158;28;20024;-74
2023/08/15 07:39:03;;;;;;;7.93;5.90;;;;;;;29.32;100.00;100558.13;5070622;28;20433;-74
2023/08/15 07:41:28;;;;;;;7.88;5.70;;;;;;;30.09;100.00;100608.22;5070828;28;20024;-74
2023/08/15 07:43:54;;;;;;;7.80;6.18;;;;;;;29.19;100.00;100560.28;5054187;28;20067;-73
2023/08/15 07:46:19;;;;;;;10.77;6.38;;;;;;;29.97;100.00;100610.22;5051026;28;20435;-74
2023/08/15 07:48:45;;;;;;;10.13;6.22;;;;;;;30.14;100.00;100601.53;5032743;28;20033;-73
2023/08/15 07:51:10;;;;;;;8.63;6.53;;;;;;;29.66;100.00;100615.00;5050208;28;20415;-73
2023/08/15 07:53:36;;;;;;;7.70;5.88;;;;;;;30.38;100.00;100585.16;5050827;28;20037;-73
2023/08/15 07:56:01;;;;;;;7.53;6.22;;;;;;;30.20;100.00;100590.41;5050693;28;20514;-75
2023/08/15 07:58:27;;;;;;;12.05;6.35;;;;;;;30.01;100.00;100606.31;5050932;28;20133;-73
2023/08/15 08:00:52;;;;;;;7.45;6.28;;;;;;;31.01;100.00;100577.75;5051042;28;20033;-73
2023/08/15 08:03:18;;;;;;;7.22;6.43;;;;;;;29.71;100.00;100560.34;5051349;28;20488;-72
2023/08/15 08:05:43;;;;;;;9.18;6.50;;;;;;;29.81;100.00;100624.03;5051221;28;20029;-74
2023/08/15 08:08:09;;;;;;;7.95;6.93;;;;;;;29.92;100.00;100560.03;5050713;28;20058;-73
2023/08/15 08:10:34;;;;;;;8.77;6.43;;;;;;;30.12;100.00;100579.03;5051186;28;20491;-74
2023/08/15 08:13:00;;;;;;;9.40;6.72;;;;;;;29.87;100.00;100578.84;5050908;28;20056;-73
2023/08/15 08:15:27;;;;;;;8.57;6.93;;;;;;;29.42;100.00;100572.00;5033263;28;20067;-73
2023/08/15 08:17:52;;;;;;;12.02;7.03;;;;;;;29.90;100.00;100633.63;5050422;28;20064;-72
2023/08/15 08:20:19;;;;;;;7.90;6.85;;;;;;;29.50;100.00;100608.78;5050628;28;20113;-73
2023/08/15 08:22:45;;;;;;;8.82;6.78;;;;;;;29.71;100.00;100620.66;5050934;28;20025;-73
2023/08/15 08:25:22;;;;;;;11.25;7.15;;;;;;;29.20;100.00;100632.72;5051055;28;20472;-75
2023/08/15 08:27:48;;;;;;;9.60;7.05;;;;;;;29.43;100.00;100641.81;5051029;28;20123;-77
2023/08/15 08:30:17;;;;;;;10.25;7.05;;;;;;;29.84;100.00;100608.00;5033752;28;20029;-77
2023/08/15 08:32:43;;;;;;;9.23;7.10;;;;;;;29.58;100.00;100614.09;5033879;28;20041;-76
2023/08/15 08:35:10;;;;;;;9.95;7.35;;;;;;;29.80;100.00;100625.03;5051778;28;20025;-76
2023/08/15 08:37:36;;;;;;;9.30;6.90;;;;;;;29.51;100.00;100587.69;5034452;28;20033;-75
2023/08/15 08:40:03;;;;;;;8.45;6.80;;;;;;;30.90;100.00;100543.91;5033061;28;20063;-78
2023/08/15 08:42:29;;;;;;;11.05;6.85;;;;;;;30.33;100.00;100540.97;5051233;28;20033;-73
2023/08/15 08:44:55;;;;;;;8.55;6.97;;;;;;;30.39;100.00;100545.59;5051289;28;20028;-75
2023/08/15 08:47:22;;;;;;;8.07;6.43;;;;;;;30.15;100.00;100612.84;5050994;28;20025;-75
2023/08/15 08:49:49;;;;;;;11.07;7.30;;;;;;;30.94;100.00;100542.59;5050317;28;20108;-76
2023/08/15 08:52:15;;;;;;;10.35;7.07;;;;;;;30.11;100.00;100528.34;5051077;28;20021;-76
2023/08/15 08:54:41;;;;;;;8.88;6.97;;;;;;;29.81;100.00;100549.78;5053210;28;20029;-74
2023/08/15 08:57:07;;;;;;;9.30;7.18;;;;;;;29.75;100.00;100626.44;5054801;28;20522;-75
2023/08/15 08:59:35;;;;;;;8.25;6.70;;;;;;;29.90;100.00;100612.66;5055482;28;20056;-74
2023/08/15 09:02:01;;;;;;;12.82;7.47;;;;;;;29.41;100.00;100567.75;5037224;28;20032;-73
2023/08/15 09:04:26;;;;;;;11.02;6.68;;;;;;;30.12;100.00;100563.28;5058348;28;20510;-75
2023/08/15 09:06:52;;;;;;;11.55;7.28;;;;;;;29.69;100.00;100546.53;5055877;28;20170;-75
2023/08/15 09:09:18;;;;;;;10.73;7.47;;;;;;;30.62;100.00;100585.28;5054042;28;20037;-75
2023/08/15 09:11:46;;;;;;;10.90;7.72;;;;;;;30.49;100.00;100546.31;5055575;28;20037;-74
2023/08/15 09:14:11;;;;;;;9.20;7.03;;;;;;;31.30;100.00;100525.56;5051529;28;20119;-76
2023/08/15 09:16:48;;;;;;;12.63;7.30;;;;;;;31.33;100.00;100465.63;5071410;28;20119;-75
2023/08/15 09:19:15;;;;;;;11.25;7.32;;;;;;;30.86;100.00;100525.00;5054318;28;20037;-75
2023/08/15 09:21:40;;;;;;;11.38;7.38;;;;;;;30.75;100.00;100527.88;5054133;28;20033;-75
2023/08/15 09:24:06;;;;;;;9.63;6.47;;;;;;;31.23;100.00;100519.34;5054080;28;20066;-76
2023/08/15 09:26:33;;;;;;;9.05;7.05;;;;;;;30.67;100.00;100590.88;5054086;28;20032;-74
2023/08/15 09:28:59;;;;;;;8.60;7.50;;;;;;;30.68;100.00;100595.97;5053917;28;20028;-74
2023/08/15 09:31:25;;;;;;;10.05;6.55;;;;;;;30.94;100.00;100584.66;5053900;28;20025;-74
2023/08/15 09:33:50;;;;;;;10.25;6.85;;;;;;;31.10;100.00;100572.38;5065610;28;20410;-73
2023/08/15 09:36:16;;;;;;;13.00;6.82;;;;;;;30.84;100.00;100523.53;5055628;28;20032;-77
2023/08/15 09:38:41;;;;;;;11.45;7.13;;;;;;;30.50;100.00;100534.84;5063897;28;20033;-76
2023/08/15 09:41:14;;;;;;;9.70;6.55;;;;;;;30.79;100.00;100579.13;5074288;28;20043;-75
2023/08/15 09:43:53;;;;;;;8.20;6.60;;;;;;;31.29;100.00;100582.63;5056648;28;20029;-77
2023/08/15 09:46:20;;;;;;;7.05;6.20;;;;;;;31.43;100.00;100507.56;5073753;28;20033;-76
2023/08/15 09:48:49;;;;;;;7.63;6.53;;;;;;;31.02;100.00;100571.53;5073818;28;20068;-78
2023/08/15 09:51:16;;;;;;;10.13;6.93;;;;;;;31.01;100.00;100569.88;5074282;28;20056;-76
2023/08/15 09:53:43;;;;;;;7.57;6.32;;;;;;;31.31;100.00;100564.88;5074395;28;20025;-77
2023/08/15 09:56:10;;;;;;;9.52;7.30;;;;;;;30.85;100.00;100515.47;5073138;28;20480;-77
2023/08/15 09:58:35;;;;;;;9.18;6.50;;;;;;;31.43;100.00;100563.63;5056678;28;20036;-77
2023/08/15 10:01:04;;;;;;;8.50;6.55;;;;;;;30.94;100.00;100516.31;5074322;28;20037;-77
2023/08/15 10:03:33;;;;;;;9.27;6.20;;;;;;;31.63;100.00;100550.16;5073869;28;20036;-77
2023/08/15 10:06:01;;;;;;;7.25;6.53;;;;;;;31.48;100.00;100492.09;5072176;28;20036;-76
2023/08/15 10:08:28;;;;;;;8.18;6.22;;;;;;;31.59;100.00;100461.03;5074172;28;20446;-77
2023/08/15 10:10:54;;;;;;;8.32;6.18;;;;;;;32.05;100.00;100519.22;5074492;28;20032;-77
2023/08/15 10:13:25;;;;;;;8.95;6.63;;;;;;;32.35;100.00;100507.94;5074179;28;20025;-79
2023/08/15 10:15:52;;;;;;;10.43;6.70;;;;;;;31.44;100.00;100478.47;5055758;28;20028;-76
2023/08/15 10:18:18;;;;;;;9.70;6.90;;;;;;;31.90;100.00;100519.06;5073868;28;20028;-77
2023/08/15 10:20:49;;;;;;;9.10;6.28;;;;;;;32.14;100.00;100420.81;5073900;28;20036;-77
2023/08/15 10:23:29;;;;;;;8.90;6.70;;;;;;;31.75;100.00;100468.09;5074416;28;20039;-77
2023/08/15 10:25:55;;;;;;;9.60;6.65;;;;;;;31.81;100.00;100456.09;5074322;28;20025;-77
2023/08/15 10:28:21;;;;;;;6.50;5.90;;;;;;;31.98;100.00;100505.91;5073975;28;20092;-78
2023/08/15 10:30:47;;;;;;;11.75;6.60;;;;;;;32.11;100.00;100514.09;5073572;28;20069;-78
2023/08/15 10:33:16;;;;;;;8.73;6.43;;;;;;;31.91;100.00;100465.41;5073914;28;20033;-77
2023/08/15 10:35:54;;;;;;;10.23;6.20;;;;;;;32.77;100.00;100508.47;5056208;28;20051;-77
2023/08/15 10:38:31;;;;;;;7.00;5.70;;;;;;;32.32;100.00;100522.28;5073910;28;20078;-76
2023/08/15 10:41:03;;;;;;;7.72;6.05;;;;;;;33.33;100.00;100493.31;5053118;28;20032;-78
2023/08/15 10:43:31;;;;;;;9.30;5.88;;;;;;;32.26;100.00;100459.78;5073625;28;20039;-77
2023/08/15 10:45:59;;;;;;;7.97;6.15;;;;;;;33.52;100.00;100426.88;5073495;28;20067;-77
2023/08/15 10:48:47;;;;;;;7.35;6.05;;;;;;;33.32;100.00;100476.66;5073451;28;20034;-78
2023/08/15 10:51:23;;;;;;;9.25;5.68;;;;;;;33.82;100.00;100454.97;5073265;28;20032;-77
2023/08/15 10:53:50;;;;;;;7.82;5.75;;;;;;;33.96;100.00;100464.72;5074735;28;20035;-77
2023/08/15 10:56:25;;;;;;;10.30;6.15;;;;;;;33.43;100.00;100476.25;5073531;28;20032;-78
2023/08/15 10:58:51;;;;;;;10.85;6.25;;;;;;;33.74;100.00;100455.88;5055673;28;20033;-77
2023/08/15 11:01:21;;;;;;;9.82;6.47;;;;;;;33.50;100.00;100398.06;5073464;28;20032;-78
2023/08/15 11:03:49;;;;;;;9.48;6.47;;;;;;;33.50;100.00;100452.63;5073018;28;20048;-80
2023/08/15 11:06:14;;;;;;;7.90;6.15;;;;;;;32.90;100.00;100423.56;5072486;28;20036;-77
2023/08/15 11:08:44;;;;;;;10.02;5.82;;;;;;;33.19;100.00;100473.81;5072269;28;20114;-70
2023/08/15 11:11:09;;;;;;;8.65;6.07;;;;;;;33.40;100.00;100405.38;5073002;28;20052;-77
2023/08/15 11:13:37;;;;;;;11.00;6.88;;;;;;;32.33;100.00;100431.75;5072868;28;20040;-76
2023/08/15 11:16:03;;;;;;;9.40;7.28;;;;;;;33.88;100.00;100456.88;5072355;28;20087;-77